Time;durP1;ratioP1;P1;durP2;ratioP2;P2;SDS_P1;SDS_P2;PMS_P1;PMS_P2;Temp;Humidity;BMP_temperature;BMP_pressure;BME280_temperature;BME280_humidity;BME280_pressure;Samples;Min_cycle;Max_cycle;Signal;HPM_P1;HPM_P2
2024/01/15 00:01:51;;;;;;;4.22;2.97;;;3.50;99.90;;;;;;5016063;28;20052;-65
2024/01/15 00:04:18;;;;;;;3.63;2.08;;;3.40;99.90;;;;;;5015891;28;20132;-66
2024/01/15 00:06:45;;;;;;;3.78;2.35;;;3.30;99.90;;;;;;5016168;28;20037;-65
2024/01/15 00:09:12;;;;;;;3.95;2.20;;;3.20;99.90;;;;;;5016240;28;20121;-65
2024/01/15 00:11:39;;;;;;;4.70;2.45;;;3.20;99.90;;;;;;5016447;28;20048;-65
2024/01/15 00:14:06;;;;;;;3.55;2.55;;;3.20;99.90;;;;;;5014903;28;20042;-65
2024/01/15 00:16:33;;;;;;;4.85;2.75;;;3.20;99.90;;;;;;5015853;28;20045;-65
2024/01/15 00:18:59;;;;;;;5.82;3.03;;;3.10;99.90;;;;;;5015532;28;20041;-64
2024/01/15 00:21:27;;;;;;;3.95;2.50;;;3.00;99.90;;;;;;5015763;28;20047;-65
2024/01/15 00:23:55;;;;;;;7.00;3.03;;;3.10;99.90;;;;;;5015577;28;20137;-65
2024/01/15 00:26:21;;;;;;;4.68;2.60;;;3.00;99.90;;;;;;5015617;28;20073;-64
2024/01/15 00:28:48;;;;;;;3.65;2.30;;;3.00;99.90;;;;;;5015610;28;20110;-65
2024/01/15 00:31:15;;;;;;;2.85;2.10;;;2.90;99.90;;;;;;5015426;28;20124;-65
2024/01/15 00:33:42;;;;;;;3.53;2.22;;;2.80;99.90;;;;;;5015518;28;20053;-64
2024/01/15 00:36:09;;;;;;;5.57;2.13;;;2.80;99.90;;;;;;5014161;28;20041;-65
2024/01/15 00:38:36;;;;;;;2.78;1.90;;;2.70;99.90;;;;;;5015316;28;20044;-64
2024/01/15 00:41:03;;;;;;;3.78;2.10;;;2.70;99.90;;;;;;5013902;28;20551;-64
2024/01/15 00:43:29;;;;;;;3.92;2.13;;;2.70;99.90;;;;;;5015352;28;20042;-64
2024/01/15 00:45:56;;;;;;;4.43;2.08;;;2.60;99.90;;;;;;5015400;28;20044;-65
2024/01/15 00:48:23;;;;;;;3.75;1.90;;;2.50;99.90;;;;;;5013934;28;20065;-64
2024/01/15 00:50:51;;;;;;;3.67;1.88;;;2.50;99.90;;;;;;5015019;28;20048;-65
2024/01/15 00:53:18;;;;;;;3.53;1.80;;;2.40;99.90;;;;;;5015150;28;20117;-64
2024/01/15 00:55:44;;;;;;;5.05;1.92;;;2.50;99.90;;;;;;5015277;28;20077;-64
2024/01/15 00:58:11;;;;;;;3.20;1.70;;;2.40;99.90;;;;;;5014870;28;20046;-61
2024/01/15 01:00:38;;;;;;;4.25;2.00;;;2.40;99.90;;;;;;5014839;28;20073;-61
2024/01/15 01:03:05;;;;;;;5.63;1.83;;;2.40;99.90;;;;;;4997593;28;20092;-61
2024/01/15 01:05:32;;;;;;;4.20;2.03;;;2.40;99.90;;;;;;5014654;28;20096;-61
2024/01/15 01:07:58;;;;;;;4.10;1.90;;;2.30;99.90;;;;;;5014648;28;20116;-62
2024/01/15 01:10:25;;;;;;;3.67;1.88;;;2.30;99.90;;;;;;5014687;28;20042;-61
2024/01/15 01:12:52;;;;;;;5.40;2.08;;;2.30;99.90;;;;;;5014543;28;20042;-61
2024/01/15 01:15:19;;;;;;;4.63;2.00;;;2.30;99.90;;;;;;5014474;28;20133;-61
2024/01/15 01:17:46;;;;;;;5.47;2.10;;;2.30;99.90;;;;;;5014501;28;20124;-61
2024/01/15 01:20:15;;;;;;;4.88;2.28;;;2.20;99.90;;;;;;5014276;28;20411;-62
2024/01/15 01:22:44;;;;;;;2.60;1.70;;;2.20;99.90;;;;;;5014804;28;20049;-61
2024/01/15 01:25:11;;;;;;;4.70;1.95;;;2.20;99.90;;;;;;5014545;28;20041;-61
2024/01/15 01:27:38;;;;;;;4.07;1.95;;;2.20;99.90;;;;;;5014695;28;20050;-62
2024/01/15 01:30:05;;;;;;;3.38;1.80;;;2.10;99.90;;;;;;5014875;28;20459;-61
2024/01/15 01:32:32;;;;;;;3.80;2.10;;;2.10;99.90;;;;;;5014257;28;20053;-61
2024/01/15 01:34:59;;;;;;;6.00;2.58;;;2.10;99.90;;;;;;5014099;28;20136;-61
2024/01/15 01:37:26;;;;;;;3.42;2.13;;;2.00;99.90;;;;;;5014089;28;20423;-61
2024/01/15 01:39:53;;;;;;;4.75;2.10;;;2.00;99.90;;;;;;5014553;28;20392;-61
2024/01/15 01:42:20;;;;;;;3.08;1.98;;;1.90;99.90;;;;;;5014409;28;20046;-61
2024/01/15 01:44:46;;;;;;;4.78;2.17;;;1.90;99.90;;;;;;5013891;28;20050;-61
2024/01/15 01:47:13;;;;;;;3.47;2.28;;;1.80;99.90;;;;;;5012816;28;20140;-61
2024/01/15 01:49:40;;;;;;;4.05;2.38;;;1.80;99.90;;;;;;5012525;28;20049;-61
2024/01/15 01:52:07;;;;;;;4.60;2.50;;;1.80;99.90;;;;;;5013628;28;20430;-61
2024/01/15 01:54:34;;;;;;;4.75;2.35;;;1.70;99.90;;;;;;5012611;28;20045;-62
2024/01/15 01:57:00;;;;;;;4.70;2.50;;;1.70;99.90;;;;;;5014129;28;20060;-61
2024/01/15 01:59:27;;;;;;;3.88;2.30;;;1.60;99.90;;;;;;5012852;28;20042;-61
2024/01/15 02:01:54;;;;;;;7.85;2.35;;;1.60;99.90;;;;;;5028033;28;20121;-61
2024/01/15 02:04:21;;;;;;;9.32;2.58;;;1.60;99.90;;;;;;5029628;28;20125;-61
2024/01/15 02:06:48;;;;;;;4.35;2.47;;;1.50;99.90;;;;;;5027656;28;20528;-62
2024/01/15 02:09:15;;;;;;;3.67;2.10;;;1.50;99.90;;;;;;5032090;28;20113;-63
2024/01/15 02:11:42;;;;;;;5.00;2.42;;;1.40;99.90;;;;;;5032672;28;20030;-62
2024/01/15 02:14:09;;;;;;;3.35;2.28;;;1.30;99.90;;;;;;5033026;28;20033;-66
2024/01/15 02:16:35;;;;;;;4.15;2.55;;;1.20;99.90;;;;;;5032838;28;20049;-67
2024/01/15 02:19:02;;;;;;;4.70;2.60;;;1.20;99.90;;;;;;5033137;28;20359;-65
2024/01/15 02:21:31;;;;;;;5.93;2.83;;;1.20;99.90;;;;;;5033300;28;20041;-66
2024/01/15 02:23:58;;;;;;;5.35;2.58;;;1.10;99.90;;;;;;5033133;28;20497;-66
2024/01/15 02:26:25;;;;;;;4.40;2.70;;;1.10;99.90;;;;;;5033618;28;20042;-66
2024/01/15 02:28:51;;;;;;;5.88;3.00;;;1.00;99.90;;;;;;5033595;28;20045;-66
2024/01/15 02:31:18;;;;;;;6.25;3.17;;;1.00;99.90;;;;;;5033165;28;20041;-66
2024/01/15 02:33:48;;;;;;;5.57;3.20;;;1.00;99.90;;;;;;5032857;28;20108;-66
2024/01/15 02:36:16;;;;;;;4.95;3.35;;;1.00;99.90;;;;;;5032890;28;20065;-66
2024/01/15 02:38:43;;;;;;;4.63;3.13;;;0.90;99.90;;;;;;5033047;28;20117;-63
2024/01/15 02:41:10;;;;;;;4.90;2.85;;;0.90;99.90;;;;;;5032352;28;20073;-63
2024/01/15 02:43:36;;;;;;;4.53;3.30;;;0.90;99.90;;;;;;5033615;28;20050;-63
2024/01/15 02:46:04;;;;;;;4.43;3.25;;;0.90;99.90;;;;;;5031764;28;20099;-63
2024/01/15 02:48:30;;;;;;;5.38;3.20;;;0.90;99.90;;;;;;5031785;28;20033;-66
2024/01/15 02:50:58;;;;;;;5.38;3.05;;;0.90;99.90;;;;;;5032281;28;20037;-66
2024/01/15 02:53:25;;;;;;;5.88;3.10;;;0.80;99.90;;;;;;5031594;28;20041;-66
2024/01/15 02:55:51;;;;;;;6.43;3.60;;;0.80;99.90;;;;;;5033445;28;20538;-66
2024/01/15 02:58:18;;;;;;;5.18;3.20;;;0.80;99.90;;;;;;5031384;28;20118;-67
2024/01/15 03:00:46;;;;;;;7.07;3.40;;;0.70;99.90;;;;;;5032112;28;20037;-65
2024/01/15 03:03:13;;;;;;;6.18;3.75;;;0.70;99.90;;;;;;5032975;28;20384;-66
2024/01/15 03:05:40;;;;;;;4.97;3.67;;;0.70;99.90;;;;;;5033304;28;20115;-66
2024/01/15 03:08:07;;;;;;;5.80;3.53;;;0.70;99.90;;;;;;5033001;28;20041;-67
2024/01/15 03:10:33;;;;;;;5.15;3.25;;;0.70;99.90;;;;;;5033059;28;20463;-67
2024/01/15 03:13:00;;;;;;;5.10;3.30;;;0.70;99.90;;;;;;5035061;28;20359;-66
2024/01/15 03:15:27;;;;;;;4.95;3.30;;;0.60;99.90;;;;;;5036920;28;20092;-65
2024/01/15 03:17:54;;;;;;;6.13;3.97;;;0.60;99.90;;;;;;5036688;28;20497;-65
2024/01/15 03:20:21;;;;;;;5.50;3.65;;;0.60;99.90;;;;;;5035121;28;20534;-62
2024/01/15 03:22:48;;;;;;;5.93;3.78;;;0.60;99.90;;;;;;5036944;28;20471;-61
2024/01/15 03:25:15;;;;;;;5.53;3.35;;;0.50;99.90;;;;;;5035396;28;20060;-61
2024/01/15 03:27:42;;;;;;;5.75;3.55;;;0.50;99.90;;;;;;5035296;28;20071;-65
2024/01/15 03:30:09;;;;;;;5.82;3.40;;;0.50;99.90;;;;;;5036574;28;20548;-62
2024/01/15 03:32:36;;;;;;;5.50;3.60;;;0.40;99.90;;;;;;5036529;28;20033;-61
2024/01/15 03:35:03;;;;;;;4.70;3.30;;;0.40;99.90;;;;;;5035939;28;20049;-62
2024/01/15 03:37:29;;;;;;;5.93;3.63;;;0.40;99.90;;;;;;5035903;28;20049;-61
2024/01/15 03:39:56;;;;;;;7.32;3.58;;;0.30;99.90;;;;;;5036417;28;20069;-61
2024/01/15 03:42:23;;;;;;;5.63;3.35;;;0.30;99.90;;;;;;5035829;28;20046;-61
2024/01/15 03:44:50;;;;;;;5.63;3.70;;;0.30;99.90;;;;;;5035762;28;20060;-62
2024/01/15 03:47:17;;;;;;;6.28;3.80;;;0.20;99.90;;;;;;5035721;28;20505;-61
2024/01/15 03:49:44;;;;;;;5.85;3.58;;;0.20;99.90;;;;;;5036106;28;20046;-62
2024/01/15 03:52:10;;;;;;;5.97;3.50;;;0.20;99.90;;;;;;5036306;28;20041;-62
2024/01/15 03:54:37;;;;;;;5.05;3.72;;;0.20;99.90;;;;;;5035623;28;20041;-62
2024/01/15 03:57:04;;;;;;;5.90;4.00;;;0.10;99.90;;;;;;5036143;28;20497;-61
2024/01/15 03:59:31;;;;;;;6.50;4.15;;;0.10;99.90;;;;;;5036227;28;20057;-62
2024/01/15 04:01:58;;;;;;;5.65;4.10;;;0.10;99.90;;;;;;5035853;28;20037;-61
2024/01/15 04:04:25;;;;;;;5.43;3.88;;;0.00;99.90;;;;;;5034478;28;20100;-62
2024/01/15 04:06:51;;;;;;;5.57;4.05;;;0.10;99.90;;;;;;5035924;28;20382;-62
2024/01/15 04:09:18;;;;;;;5.97;3.72;;;0.00;99.90;;;;;;5035668;28;20099;-62
2024/01/15 04:11:45;;;;;;;6.53;3.90;;;0.00;99.90;;;;;;5035516;28;20045;-62
2024/01/15 04:14:12;;;;;;;9.60;4.22;;;0.00;99.90;;;;;;5035253;28;20039;-61
2024/01/15 04:16:39;;;;;;;4.70;3.80;;;0.00;99.90;;;;;;5035297;28;20049;-64
2024/01/15 04:19:06;;;;;;;7.32;3.78;;;0.00;99.90;;;;;;5035007;28;20120;-64
2024/01/15 04:21:33;;;;;;;8.52;3.90;;;0.00;99.90;;;;;;5035195;28;20099;-67
2024/01/15 04:24:00;;;;;;;7.38;4.15;;;-0.10;99.90;;;;;;5032880;28;20496;-65
2024/01/15 04:26:26;;;;;;;5.32;3.80;;;-0.10;99.90;;;;;;5034914;28;20057;-65
2024/01/15 04:28:53;;;;;;;5.97;3.65;;;-0.10;99.90;;;;;;5035342;28;20041;-65
2024/01/15 04:31:20;;;;;;;5.57;3.58;;;-0.10;99.90;;;;;;5034855;28;20100;-63
2024/01/15 04:33:47;;;;;;;4.90;3.95;;;-0.20;99.90;;;;;;5035130;28;20132;-65
2024/01/15 04:36:14;;;;;;;5.63;3.67;;;-0.20;99.90;;;;;;5034870;28;20114;-64
2024/01/15 04:38:40;;;;;;;7.97;3.90;;;-0.10;99.90;;;;;;5034754;28;20041;-64
2024/01/15 04:41:07;;;;;;;7.05;3.88;;;-0.20;99.90;;;;;;5035159;28;20048;-64
2024/01/15 04:43:34;;;;;;;6.20;3.65;;;-0.20;99.90;;;;;;5034911;28;20147;-64
2024/01/15 04:46:03;;;;;;;4.65;3.45;;;-0.20;99.90;;;;;;5034174;28;20091;-64
2024/01/15 04:48:29;;;;;;;5.25;3.72;;;-0.20;99.90;;;;;;5034611;28;20048;-65
2024/01/15 04:50:56;;;;;;;5.65;3.85;;;-0.20;99.90;;;;;;5033702;28;20795;-63
2024/01/15 04:53:23;;;;;;;5.15;3.58;;;-0.20;99.90;;;;;;5034556;28;20044;-64
2024/01/15 04:55:50;;;;;;;5.65;3.30;;;-0.20;99.90;;;;;;5033797;28;20041;-65
2024/01/15 04:58:16;;;;;;;5.03;3.28;;;-0.20;99.90;;;;;;5034826;28;20466;-63
2024/01/15 05:00:43;;;;;;;7.00;3.78;;;-0.20;99.90;;;;;;5034962;28;20052;-65
2024/01/15 05:03:10;;;;;;;6.20;3.75;;;-0.20;99.90;;;;;;5034556;28;20120;-65
2024/01/15 05:05:37;;;;;;;5.63;3.42;;;-0.20;99.90;;;;;;5034737;28;20493;-63
2024/01/15 05:08:04;;;;;;;5.53;3.97;;;-0.20;99.90;;;;;;5034520;28;20120;-65
2024/01/15 05:10:31;;;;;;;7.78;4.55;;;-0.20;99.90;;;;;;5034704;28;20037;-65
2024/01/15 05:12:58;;;;;;;7.60;4.68;;;-0.20;99.90;;;;;;5034576;28;20530;-65
2024/01/15 05:15:24;;;;;;;5.90;3.78;;;-0.20;99.90;;;;;;5034558;28;20045;-64
2024/01/15 05:17:51;;;;;;;6.05;3.83;;;-0.20;99.90;;;;;;5034603;28;20041;-65
2024/01/15 05:20:18;;;;;;;9.50;4.00;;;-0.30;99.90;;;;;;5033974;28;20049;-65
2024/01/15 05:22:45;;;;;;;8.10;3.72;;;-0.20;99.90;;;;;;5033972;28;20049;-63
2024/01/15 05:25:12;;;;;;;6.85;4.43;;;-0.20;99.90;;;;;;5034035;28;20038;-64
2024/01/15 05:27:38;;;;;;;5.75;3.95;;;-0.30;99.90;;;;;;5033999;28;20422;-64
2024/01/15 05:30:05;;;;;;;5.88;3.60;;;-0.30;99.90;;;;;;5033963;28;20433;-64
2024/01/15 05:32:32;;;;;;;4.78;3.53;;;-0.40;99.90;;;;;;5033903;28;20465;-64
2024/01/15 05:34:59;;;;;;;6.00;3.38;;;-0.40;99.90;;;;;;5033697;28;20083;-64
2024/01/15 05:37:26;;;;;;;5.93;3.67;;;-0.50;99.90;;;;;;5034087;28;20119;-65
2024/01/15 05:39:53;;;;;;;4.85;3.10;;;-0.50;99.90;;;;;;5033052;28;20045;-65
2024/01/15 05:42:19;;;;;;;7.20;3.20;;;-0.50;99.90;;;;;;5033802;28;20049;-65
2024/01/15 05:44:46;;;;;;;6.22;3.25;;;-0.50;99.90;;;;;;5033856;28;20080;-64
2024/01/15 05:47:13;;;;;;;4.72;3.17;;;-0.50;99.90;;;;;;5033566;28;20056;-64
2024/01/15 05:49:40;;;;;;;5.63;3.38;;;-0.50;99.90;;;;;;5033741;28;20470;-64
2024/01/15 05:52:07;;;;;;;7.05;4.40;;;-0.50;99.90;;;;;;5033473;28;20120;-67
2024/01/15 05:54:33;;;;;;;5.68;3.67;;;-0.50;99.90;;;;;;5033525;28;20041;-64
2024/01/15 05:57:00;;;;;;;5.47;3.58;;;-0.50;99.90;;;;;;5033917;28;20131;-63
2024/01/15 05:59:31;;;;;;;6.88;3.30;;;-0.50;99.90;;;;;;5033443;28;20041;-64
2024/01/15 06:01:58;;;;;;;5.35;3.15;;;-0.50;99.90;;;;;;5032036;28;20069;-64
2024/01/15 06:04:25;;;;;;;5.90;3.50;;;-0.50;99.90;;;;;;5033303;28;20052;-64
2024/01/15 06:06:52;;;;;;;5.25;3.55;;;-0.50;99.90;;;;;;5033164;28;20045;-64
2024/01/15 06:09:19;;;;;;;4.95;3.42;;;-0.50;99.90;;;;;;5033453;28;20037;-64
2024/01/15 06:11:46;;;;;;;8.05;3.30;;;-0.50;99.90;;;;;;5033357;28;20116;-64
2024/01/15 06:14:12;;;;;;;5.15;3.33;;;-0.50;99.90;;;;;;5032917;28;20451;-64
2024/01/15 06:16:39;;;;;;;6.20;3.65;;;-0.50;99.90;;;;;;5033283;28;20116;-64
2024/01/15 06:19:06;;;;;;;8.05;4.32;;;-0.50;99.90;;;;;;5031886;28;20033;-64
2024/01/15 06:21:33;;;;;;;5.85;3.63;;;-0.50;99.90;;;;;;5032557;28;20041;-64
2024/01/15 06:24:01;;;;;;;5.05;3.75;;;-0.50;99.90;;;;;;5033014;28;20049;-64
2024/01/15 06:26:28;;;;;;;6.53;3.20;;;-0.60;99.90;;;;;;5033365;28;20041;-64
2024/01/15 06:28:55;;;;;;;5.65;3.40;;;-0.60;99.90;;;;;;5032567;28;20402;-64
2024/01/15 06:31:22;;;;;;;8.40;4.05;;;-0.60;99.90;;;;;;5033600;28;20382;-65
2024/01/15 06:33:49;;;;;;;5.65;3.60;;;-0.60;99.90;;;;;;5033341;28;20041;-66
2024/01/15 06:36:16;;;;;;;6.55;3.63;;;-0.60;99.90;;;;;;5033748;28;20056;-65
2024/01/15 06:38:43;;;;;;;4.85;3.53;;;-0.60;99.90;;;;;;5033014;28;20045;-62
2024/01/15 06:41:10;;;;;;;8.90;3.80;;;-0.70;99.90;;;;;;5033581;28;20045;-62
2024/01/15 06:43:37;;;;;;;7.82;4.22;;;-0.60;99.90;;;;;;5033382;28;20495;-61
2024/01/15 06:46:03;;;;;;;5.18;3.60;;;-0.70;99.90;;;;;;5032803;28;20045;-61
2024/01/15 06:48:34;;;;;;;4.72;3.28;;;-0.70;99.90;;;;;;5036649;28;20435;-61
2024/01/15 06:51:01;;;;;;;5.93;3.45;;;-0.60;99.90;;;;;;5036985;28;20367;-62
2024/01/15 06:53:28;;;;;;;6.93;3.38;;;-0.70;99.90;;;;;;5036699;28;20079;-61
2024/01/15 06:55:54;;;;;;;8.18;3.83;;;-0.70;99.90;;;;;;5036709;28;20371;-62
2024/01/15 06:58:21;;;;;;;6.03;3.30;;;-0.60;99.90;;;;;;5037006;28;20049;-62
2024/01/15 07:00:48;;;;;;;5.78;3.30;;;-0.70;99.90;;;;;;5036097;28;20434;-61
2024/01/15 07:03:15;;;;;;;4.55;3.47;;;-0.70;99.90;;;;;;5037146;28;20387;-62
2024/01/15 07:05:42;;;;;;;4.57;3.13;;;-0.70;99.90;;;;;;5036642;28;20045;-66
2024/01/15 07:08:09;;;;;;;5.93;3.25;;;-0.70;99.90;;;;;;5036666;28;20403;-66
2024/01/15 07:10:36;;;;;;;5.05;3.00;;;-0.70;99.90;;;;;;5036528;28;20574;-62
2024/01/15 07:13:04;;;;;;;5.28;3.13;;;-0.70;99.90;;;;;;5036597;28;20043;-62
2024/01/15 07:15:31;;;;;;;6.68;3.78;;;-0.70;99.90;;;;;;5036610;28;20403;-62
2024/01/15 07:17:58;;;;;;;7.28;3.20;;;-0.70;99.90;;;;;;5036608;28;20124;-63
2024/01/15 07:20:25;;;;;;;4.30;3.53;;;-0.70;99.90;;;;;;5036640;28;20064;-63
2024/01/15 07:22:52;;;;;;;7.20;3.33;;;-0.70;99.90;;;;;;5036801;28;20465;-63
2024/01/15 07:25:18;;;;;;;4.95;3.15;;;-0.70;99.90;;;;;;5035162;28;20149;-63
2024/01/15 07:27:46;;;;;;;4.75;3.50;;;-0.80;99.90;;;;;;5036324;28;20052;-63
2024/01/15 07:30:13;;;;;;;4.93;3.40;;;-0.70;99.90;;;;;;5035474;28;20061;-62
2024/01/15 07:32:40;;;;;;;4.18;2.75;;;-0.80;99.90;;;;;;5036204;28;20033;-67
2024/01/15 07:35:07;;;;;;;4.55;2.80;;;-0.80;99.90;;;;;;5035320;28;20037;-66
2024/01/15 07:37:34;;;;;;;5.18;3.20;;;-0.80;99.90;;;;;;5036577;28;20049;-65
2024/01/15 07:40:01;;;;;;;4.28;2.78;;;-0.80;99.90;;;;;;5036288;28;20103;-65
2024/01/15 07:42:28;;;;;;;6.32;3.15;;;-0.80;99.90;;;;;;5036005;28;20037;-64
2024/01/15 07:44:55;;;;;;;5.30;3.15;;;-0.80;99.90;;;;;;5036212;28;20144;-65
2024/01/15 07:47:21;;;;;;;5.05;3.10;;;-0.80;99.90;;;;;;5036382;28;20045;-65
2024/01/15 07:49:48;;;;;;;5.38;3.20;;;-0.80;99.90;;;;;;5036103;28;20046;-64
2024/01/15 07:52:15;;;;;;;6.82;3.00;;;-0.90;99.90;;;;;;5035047;28;20034;-65
2024/01/15 07:54:42;;;;;;;4.22;2.90;;;-0.90;99.90;;;;;;5035812;28;20087;-65
2024/01/15 07:57:09;;;;;;;5.93;3.00;;;-0.90;99.90;;;;;;5036121;28;20485;-65
2024/01/15 07:59:36;;;;;;;5.47;3.63;;;-1.00;99.90;;;;;;5034755;28;20037;-65
2024/01/15 08:02:03;;;;;;;4.10;2.63;;;-1.00;99.90;;;;;;5035589;28;20041;-65
2024/01/15 08:04:30;;;;;;;6.07;2.90;;;-1.00;99.90;;;;;;5023620;28;20052;-65
2024/01/15 08:06:57;;;;;;;5.60;3.30;;;-1.00;99.90;;;;;;5014453;28;20069;-62
2024/01/15 08:09:24;;;;;;;6.78;3.28;;;-1.00;99.90;;;;;;5020849;28;20125;-65
2024/01/15 08:11:53;;;;;;;9.10;3.55;;;-1.00;99.90;;;;;;5030214;28;20414;-65
2024/01/15 08:14:19;;;;;;;7.40;3.50;;;-1.00;99.90;;;;;;5034926;28;20111;-64
2024/01/15 08:16:46;;;;;;;5.28;2.95;;;-1.00;99.90;;;;;;5034936;28;20045;-64
2024/01/15 08:19:14;;;;;;;5.28;2.92;;;-1.00;99.90;;;;;;5034581;28;20057;-65
2024/01/15 08:21:41;;;;;;;7.45;3.35;;;-1.00;99.90;;;;;;5033186;28;20352;-65
2024/01/15 08:24:08;;;;;;;7.85;3.10;;;-1.00;99.90;;;;;;5034791;28;20470;-63
2024/01/15 08:26:35;;;;;;;8.30;3.55;;;-1.00;99.90;;;;;;5034470;28;20041;-63
2024/01/15 08:29:02;;;;;;;4.20;2.92;;;-1.00;99.90;;;;;;5033182;28;20240;-62
2024/01/15 08:31:28;;;;;;;5.18;2.60;;;-1.00;99.90;;;;;;5034739;28;20402;-64
2024/01/15 08:33:55;;;;;;;4.30;2.88;;;-1.00;99.90;;;;;;5034880;28;20469;-64
2024/01/15 08:36:22;;;;;;;7.28;2.88;;;-1.00;99.90;;;;;;5025196;28;20038;-63
2024/01/15 08:38:49;;;;;;;5.75;3.10;;;-0.90;99.90;;;;;;5015325;28;20424;-64
2024/01/15 08:41:16;;;;;;;5.13;2.97;;;-0.80;99.90;;;;;;5014817;28;20057;-64
2024/01/15 08:43:43;;;;;;;6.35;2.70;;;-0.80;99.90;;;;;;5014702;28;20050;-64
2024/01/15 08:46:10;;;;;;;4.93;2.42;;;-0.80;99.90;;;;;;5013663;28;20136;-63
2024/01/15 08:48:36;;;;;;;5.97;3.03;;;-0.70;99.90;;;;;;5014529;28;20057;-64
2024/01/15 08:51:03;;;;;;;7.07;2.60;;;-0.70;99.90;;;;;;5012966;28;20034;-65
2024/01/15 08:53:30;;;;;;;4.47;2.80;;;-0.70;99.90;;;;;;5014649;28;20042;-64
2024/01/15 08:55:57;;;;;;;6.30;2.60;;;-0.70;99.90;;;;;;5014699;28;20513;-64
2024/01/15 08:58:24;;;;;;;5.35;2.75;;;-0.60;99.90;;;;;;5025545;28;20053;-65
2024/01/15 09:00:51;;;;;;;8.05;2.95;;;-0.60;99.90;;;;;;5028977;28;20471;-62
2024/01/15 09:03:18;;;;;;;4.18;2.55;;;-0.50;99.90;;;;;;5014192;28;20038;-65
2024/01/15 09:05:45;;;;;;;4.03;2.70;;;-0.50;99.90;;;;;;5014683;28;20607;-65
2024/01/15 09:08:12;;;;;;;6.20;2.70;;;-0.50;99.90;;;;;;5013005;28;20127;-64
2024/01/15 09:10:39;;;;;;;4.45;2.50;;;-0.40;99.90;;;;;;5013714;28;20041;-65
2024/01/15 09:13:06;;;;;;;4.00;2.67;;;-0.40;99.90;;;;;;5014238;28;20117;-65
2024/01/15 09:15:32;;;;;;;8.25;2.88;;;-0.40;99.90;;;;;;5014226;28;20395;-64
2024/01/15 09:18:01;;;;;;;4.55;2.70;;;-0.30;99.90;;;;;;5013120;28;20046;-65
2024/01/15 09:20:32;;;;;;;6.25;2.70;;;-0.30;99.90;;;;;;5013828;28;20123;-65
2024/01/15 09:22:59;;;;;;;6.40;2.65;;;-0.30;99.90;;;;;;4996596;28;20045;-62
2024/01/15 09:25:26;;;;;;;6.43;2.55;;;-0.20;99.90;;;;;;5012915;28;20471;-63
2024/01/15 09:27:53;;;;;;;4.40;2.40;;;-0.20;99.90;;;;;;5012753;28;20049;-64
2024/01/15 09:30:20;;;;;;;4.90;2.60;;;-0.20;99.90;;;;;;5013936;28;20037;-64
2024/01/15 09:32:48;;;;;;;6.88;3.00;;;-0.10;99.90;;;;;;5014001;28;20487;-63
2024/01/15 09:35:15;;;;;;;5.70;2.80;;;-0.10;99.90;;;;;;5013915;28;20041;-63
2024/01/15 09:37:42;;;;;;;8.23;2.88;;;-0.10;99.90;;;;;;5012791;28;20042;-66
2024/01/15 09:40:14;;;;;;;5.45;2.90;;;0.00;99.90;;;;;;5013946;28;20092;-62
2024/01/15 09:42:45;;;;;;;7.20;2.72;;;0.00;99.90;;;;;;5012490;28;20073;-62
2024/01/15 09:45:22;;;;;;;9.60;2.72;;;0.10;99.90;;;;;;5013941;28;20431;-66
2024/01/15 09:47:49;;;;;;;6.50;2.63;;;0.10;99.90;;;;;;5012709;28;20443;-66
2024/01/15 09:50:16;;;;;;;8.63;2.50;;;0.20;99.90;;;;;;5013692;28;20454;-66
2024/01/15 09:52:43;;;;;;;4.15;2.30;;;0.20;99.90;;;;;;5013425;28;20052;-66
2024/01/15 09:55:11;;;;;;;3.97;2.30;;;0.30;99.90;;;;;;5013360;28;20044;-66
2024/01/15 09:57:38;;;;;;;5.80;2.15;;;0.40;99.90;;;;;;5014086;28;20489;-65
2024/01/15 10:00:06;;;;;;;4.30;1.85;;;0.40;99.90;;;;;;5014112;28;20088;-66
2024/01/15 10:02:33;;;;;;;3.42;1.70;;;0.50;99.90;;;;;;5013930;28;20154;-66
2024/01/15 10:05:00;;;;;;;7.55;2.08;;;0.50;99.90;;;;;;5013049;28;20041;-66
2024/01/15 10:07:28;;;;;;;6.53;1.90;;;0.60;99.90;;;;;;5014082;28;20351;-66
2024/01/15 10:09:55;;;;;;;3.58;1.83;;;0.70;99.90;;;;;;5013728;28;20042;-63
2024/01/15 10:12:27;;;;;;;4.70;2.25;;;0.70;99.90;;;;;;5014242;28;20045;-59
2024/01/15 10:14:54;;;;;;;3.72;1.55;;;0.70;99.90;;;;;;5031445;28;20137;-60
2024/01/15 10:17:21;;;;;;;4.68;1.80;;;0.80;99.90;;;;;;5028984;28;20128;-60
2024/01/15 10:19:48;;;;;;;5.30;1.50;;;0.90;99.90;;;;;;5031085;28;20119;-61
2024/01/15 10:22:17;;;;;;;5.32;1.75;;;0.90;99.90;;;;;;5012655;28;20432;-61
2024/01/15 10:24:46;;;;;;;4.10;1.88;;;1.00;99.90;;;;;;5013072;28;20368;-60
2024/01/15 10:27:14;;;;;;;4.82;1.70;;;1.00;99.90;;;;;;5012026;28;20049;-59
2024/01/15 10:29:42;;;;;;;3.17;1.30;;;1.10;99.90;;;;;;5018162;28;20037;-65
2024/01/15 10:32:09;;;;;;;4.70;1.60;;;1.10;99.90;;;;;;5018448;28;20034;-62
2024/01/15 10:34:36;;;;;;;4.50;2.08;;;1.10;99.90;;;;;;5013376;28;20034;-62
2024/01/15 10:37:03;;;;;;;3.13;1.52;;;1.20;99.90;;;;;;5016811;28;20447;-61
2024/01/15 10:39:30;;;;;;;3.60;1.60;;;1.20;99.90;;;;;;5018338;28;20546;-63
2024/01/15 10:41:57;;;;;;;5.32;2.17;;;1.30;99.90;;;;;;5027826;28;20483;-62
2024/01/15 10:44:24;;;;;;;5.93;1.98;;;1.30;99.90;;;;;;5032185;28;20137;-63
2024/01/15 10:46:51;;;;;;;2.90;0.93;;;1.30;99.90;;;;;;5028200;28;20468;-62
2024/01/15 10:49:19;;;;;;;6.78;1.50;;;1.30;99.90;;;;;;5012855;28;20038;-64
2024/01/15 10:51:46;;;;;;;4.80;1.67;;;1.30;99.90;;;;;;5013736;28;20048;-62
2024/01/15 10:54:13;;;;;;;4.60;1.50;;;1.40;99.90;;;;;;5012941;28;20458;-66
2024/01/15 10:56:42;;;;;;;7.53;1.80;;;1.40;99.90;;;;;;5016468;28;20070;-61
2024/01/15 10:59:10;;;;;;;5.65;1.27;;;1.40;99.90;;;;;;5031951;28;20050;-62
2024/01/15 11:01:37;;;;;;;4.20;1.10;;;1.50;99.90;;;;;;5018453;28;20042;-60
2024/01/15 11:04:05;;;;;;;3.35;1.45;;;1.50;99.90;;;;;;5031841;28;20045;-60
2024/01/15 11:06:32;;;;;;;3.63;1.20;;;1.50;99.90;;;;;;5025492;28;20493;-60
2024/01/15 11:08:59;;;;;;;4.25;1.20;;;1.60;99.90;;;;;;5017772;28;20148;-62
2024/01/15 11:11:26;;;;;;;5.97;1.40;;;1.60;99.90;;;;;;5019897;28;20038;-62
2024/01/15 11:13:53;;;;;;;5.15;1.17;;;1.60;99.90;;;;;;5013109;28;20038;-62
2024/01/15 11:16:20;;;;;;;3.65;1.30;;;1.60;99.90;;;;;;5027346;28;20044;-60
2024/01/15 11:18:46;;;;;;;3.42;1.20;;;1.70;99.90;;;;;;5030130;28;20048;-60
2024/01/15 11:21:16;;;;;;;6.13;1.30;;;1.70;99.90;;;;;;5016584;28;20072;-60
2024/01/15 11:23:46;;;;;;;5.80;1.00;;;1.80;99.90;;;;;;5019144;28;20069;-61
2024/01/15 11:26:19;;;;;;;5.82;1.42;;;1.80;99.90;;;;;;5012396;28;20073;-62
2024/01/15 11:28:46;;;;;;;4.68;1.20;;;1.80;99.90;;;;;;5029716;28;20044;-60
2024/01/15 11:31:12;;;;;;;6.47;1.63;;;1.80;99.90;;;;;;5027106;28;20490;-60
2024/01/15 11:33:39;;;;;;;4.88;1.40;;;1.80;99.90;;;;;;5020206;28;20042;-62
2024/01/15 11:36:08;;;;;;;3.83;1.38;;;1.80;99.90;;;;;;5017005;28;20089;-62
2024/01/15 11:38:35;;;;;;;6.78;1.55;;;1.90;99.90;;;;;;5027737;28;20073;-61
2024/01/15 11:41:01;;;;;;;6.07;1.67;;;2.00;99.90;;;;;;5035082;28;20045;-61
2024/01/15 11:43:31;;;;;;;3.58;1.30;;;2.00;99.90;;;;;;5033564;28;20049;-62
2024/01/15 11:45:58;;;;;;;6.22;1.40;;;2.00;99.90;;;;;;5027624;28;20140;-62
2024/01/15 11:48:27;;;;;;;7.22;1.60;;;2.00;99.90;;;;;;5015843;28;20048;-61
2024/01/15 11:50:54;;;;;;;6.63;1.38;;;2.00;99.90;;;;;;5020548;28;20115;-65
2024/01/15 11:53:21;;;;;;;3.72;1.40;;;2.00;99.90;;;;;;5015878;28;20088;-61
2024/01/15 11:55:48;;;;;;;4.88;1.33;;;2.00;99.90;;;;;;5018298;28;20107;-63
2024/01/15 11:58:16;;;;;;;3.10;1.20;;;2.00;99.90;;;;;;5014078;28;20042;-63
2024/01/15 12:00:42;;;;;;;4.93;1.70;;;2.10;99.90;;;;;;5018152;28;20041;-61
2024/01/15 12:03:10;;;;;;;7.05;1.63;;;2.10;99.90;;;;;;5014365;28;20038;-63
2024/01/15 12:05:36;;;;;;;4.85;1.30;;;2.10;99.90;;;;;;5016987;28;20038;-63
2024/01/15 12:08:03;;;;;;;5.82;1.70;;;2.10;99.90;;;;;;5021363;28;20160;-63
2024/01/15 12:10:30;;;;;;;4.10;1.20;;;2.10;99.90;;;;;;5015533;28;20038;-60
2024/01/15 12:12:57;;;;;;;3.88;1.27;;;2.10;99.90;;;;;;5015643;28;20403;-61
2024/01/15 12:15:24;;;;;;;7.47;1.15;;;2.20;99.90;;;;;;5020322;28;20061;-64
2024/01/15 12:17:51;;;;;;;4.00;1.02;;;2.20;99.90;;;;;;5015307;28;20042;-64
2024/01/15 12:20:18;;;;;;;5.38;1.50;;;2.20;99.90;;;;;;5015173;28;20665;-64
2024/01/15 12:22:45;;;;;;;3.00;1.23;;;2.20;99.90;;;;;;5015300;28;20090;-63
2024/01/15 12:25:27;;;;;;;7.20;1.90;;;2.20;99.90;;;;;;5015378;28;20050;-64
2024/01/15 12:27:54;;;;;;;3.28;1.30;;;2.20;99.90;;;;;;5015382;28;20042;-62
2024/01/15 12:30:21;;;;;;;5.35;1.52;;;2.30;99.90;;;;;;5017204;28;20092;-66
2024/01/15 12:32:48;;;;;;;7.43;2.30;;;2.40;99.90;;;;;;4997542;28;20041;-61
2024/01/15 12:35:18;;;;;;;7.30;2.22;;;2.40;99.90;;;;;;5016224;28;20038;-61
2024/01/15 12:37:46;;;;;;;5.78;2.13;;;2.40;99.90;;;;;;5019949;28;20049;-62
2024/01/15 12:40:14;;;;;;;6.50;2.28;;;2.40;99.90;;;;;;5018851;28;20046;-64
2024/01/15 12:42:41;;;;;;;4.38;1.65;;;2.40;99.90;;;;;;5014899;28;20046;-64
2024/01/15 12:45:08;;;;;;;6.20;1.60;;;2.40;99.90;;;;;;5020311;28;20044;-65
2024/01/15 12:47:35;;;;;;;4.70;1.42;;;2.40;99.90;;;;;;5014888;28;20049;-65
2024/01/15 12:50:02;;;;;;;4.72;1.40;;;2.50;99.90;;;;;;5019579;28;20053;-65
2024/01/15 12:52:41;;;;;;;5.78;1.55;;;2.40;99.90;;;;;;5014762;28;20097;-65